Terminal Aerodrome Forecast
Issued by NWS Cleveland, OH

Home | Current Version | Previous Version | Graphics & Text | Print | Product List | Glossary On
Versions: 1 2 3 4 5 6 7 8 9 10 11 12 13 14 15 16 17 18 19 20
000
FTUS41 KCLE 191048 AAB
TAFMFD
TAF AMD
KMFD 191048Z 1911/2006 30010G20KT P6SM OVC035
     FM191500 29010G20KT P6SM VCSH OVC035
     FM192300 28012KT P6SM BKN035
     FM200300 27012KT P6SM SCT035=

USA.gov is the U.S. government's official web portal to all federal, state and local government web resources and services.